首页
METAR-TAF:

METAR-TAF

机场 :

Menomonie Municipal Airport (Score Field)

梅诺莫尼, 威斯康辛州, 美国

纬度: 44-53-32N, 经度: 091-52-04W, 海拔: 273米

当前天气观测

该预报发布于24分钟前的08:35 UTC
静风
温度 15°C
湿度 88%
气压 1019 hPa
能見度: 16.1公里
天空无云

METAR: KLUM 270835Z AUTO 00000KT 10SM CLR 15/13 A3008 RMK AO2 T01490130

时间: 03:59 (08:59 UTC)


TAF: 丢失

超过4000个机场的气象观测和天气预报(METAR&TAF报告)。

可查询的气象台以黄色和红色小点在地图上表示。

将鼠标移到小点上方,可查看气象台名称。

然后点击查看天气观测和预报。

如需切换地图:点击带黑十字的绿色按钮放大地图;点击带横线的绿色按钮缩小地图;或者点击绿色箭头查看邻近地区的地图。


METAR-TAF: